sensor_id;sensor_type;location;lat;lon;timestamp;P1;durP1;ratioP1;P2;durP2;ratioP2
13457;SDS011;6801;53.018;11.560;2023-09-18T00:00:55;4.50;;;3.13;;
13457;SDS011;6801;53.018;11.560;2023-09-18T00:03:24;5.75;;;3.90;;
13457;SDS011;6801;53.018;11.560;2023-09-18T00:05:51;4.65;;;3.90;;
13457;SDS011;6801;53.018;11.560;2023-09-18T00:08:19;5.63;;;4.60;;
13457;SDS011;6801;53.018;11.560;2023-09-18T00:10:46;8.45;;;4.22;;
13457;SDS011;6801;53.018;11.560;2023-09-18T00:13:15;5.43;;;4.60;;
13457;SDS011;6801;53.018;11.560;2023-09-18T00:15:42;4.40;;;3.85;;
13457;SDS011;6801;53.018;11.560;2023-09-18T00:18:09;6.80;;;2.92;;
13457;SDS011;6801;53.018;11.560;2023-09-18T00:20:38;7.32;;;4.05;;
13457;SDS011;6801;53.018;11.560;2023-09-18T00:23:05;5.28;;;4.45;;
13457;SDS011;6801;53.018;11.560;2023-09-18T00:25:33;10.02;;;4.38;;
13457;SDS011;6801;53.018;11.560;2023-09-18T00:28:00;6.55;;;4.28;;
13457;SDS011;6801;53.018;11.560;2023-09-18T00:30:28;4.05;;;3.40;;
13457;SDS011;6801;53.018;11.560;2023-09-18T00:32:55;4.38;;;3.42;;
13457;SDS011;6801;53.018;11.560;2023-09-18T00:35:22;10.10;;;3.67;;
13457;SDS011;6801;53.018;11.560;2023-09-18T00:37:50;4.10;;;3.45;;
13457;SDS011;6801;53.018;11.560;2023-09-18T00:40:18;5.82;;;3.40;;
13457;SDS011;6801;53.018;11.560;2023-09-18T00:42:45;5.68;;;3.40;;
13457;SDS011;6801;53.018;11.560;2023-09-18T00:45:12;5.63;;;3.45;;
13457;SDS011;6801;53.018;11.560;2023-09-18T00:47:39;4.72;;;3.70;;
13457;SDS011;6801;53.018;11.560;2023-09-18T00:50:07;6.53;;;4.60;;
13457;SDS011;6801;53.018;11.560;2023-09-18T00:52:36;5.35;;;4.60;;
13457;SDS011;6801;53.018;11.560;2023-09-18T00:55:05;5.55;;;4.70;;
13457;SDS011;6801;53.018;11.560;2023-09-18T00:57:33;7.93;;;5.22;;
13457;SDS011;6801;53.018;11.560;2023-09-18T01:00:01;5.70;;;4.80;;
13457;SDS011;6801;53.018;11.560;2023-09-18T01:02:30;6.40;;;4.93;;
13457;SDS011;6801;53.018;11.560;2023-09-18T01:04:57;6.15;;;5.28;;
13457;SDS011;6801;53.018;11.560;2023-09-18T01:07:24;6.90;;;5.50;;
13457;SDS011;6801;53.018;11.560;2023-09-18T01:09:53;5.75;;;4.95;;
13457;SDS011;6801;53.018;11.560;2023-09-18T01:12:23;7.07;;;5.70;;
13457;SDS011;6801;53.018;11.560;2023-09-18T01:14:59;7.88;;;5.63;;
13457;SDS011;6801;53.018;11.560;2023-09-18T01:17:34;7.03;;;5.28;;
13457;SDS011;6801;53.018;11.560;2023-09-18T01:20:04;7.78;;;5.55;;
13457;SDS011;6801;53.018;11.560;2023-09-18T01:22:33;6.70;;;5.38;;
13457;SDS011;6801;53.018;11.560;2023-09-18T01:25:00;6.20;;;5.57;;
13457;SDS011;6801;53.018;11.560;2023-09-18T01:27:27;7.90;;;4.95;;
13457;SDS011;6801;53.018;11.560;2023-09-18T01:29:54;7.13;;;5.35;;
13457;SDS011;6801;53.018;11.560;2023-09-18T01:34:51;7.30;;;5.32;;
13457;SDS011;6801;53.018;11.560;2023-09-18T01:37:21;6.80;;;5.27;;
13457;SDS011;6801;53.018;11.560;2023-09-18T01:39:53;7.28;;;5.53;;
13457;SDS011;6801;53.018;11.560;2023-09-18T01:42:23;8.50;;;5.72;;
13457;SDS011;6801;53.018;11.560;2023-09-18T01:44:52;7.25;;;5.40;;
13457;SDS011;6801;53.018;11.560;2023-09-18T01:47:20;7.30;;;5.30;;
13457;SDS011;6801;53.018;11.560;2023-09-18T01:49:48;7.35;;;5.95;;
13457;SDS011;6801;53.018;11.560;2023-09-18T01:52:15;7.45;;;6.20;;
13457;SDS011;6801;53.018;11.560;2023-09-18T01:54:42;7.25;;;5.32;;
13457;SDS011;6801;53.018;11.560;2023-09-18T01:57:12;9.23;;;6.03;;
13457;SDS011;6801;53.018;11.560;2023-09-18T01:59:39;8.27;;;4.93;;
13457;SDS011;6801;53.018;11.560;2023-09-18T02:02:07;8.07;;;5.93;;
13457;SDS011;6801;53.018;11.560;2023-09-18T02:04:35;6.93;;;5.60;;
13457;SDS011;6801;53.018;11.560;2023-09-18T02:07:02;7.45;;;5.53;;
13457;SDS011;6801;53.018;11.560;2023-09-18T02:09:30;6.50;;;4.90;;
13457;SDS011;6801;53.018;11.560;2023-09-18T02:11:57;9.88;;;5.60;;
13457;SDS011;6801;53.018;11.560;2023-09-18T02:14:25;6.80;;;5.82;;
13457;SDS011;6801;53.018;11.560;2023-09-18T02:16:52;8.82;;;5.85;;
13457;SDS011;6801;53.018;11.560;2023-09-18T02:19:19;7.03;;;5.70;;
13457;SDS011;6801;53.018;11.560;2023-09-18T02:21:46;10.98;;;5.32;;
13457;SDS011;6801;53.018;11.560;2023-09-18T02:24:13;6.13;;;5.32;;
13457;SDS011;6801;53.018;11.560;2023-09-18T02:26:40;8.82;;;5.72;;
13457;SDS011;6801;53.018;11.560;2023-09-18T02:29:07;9.40;;;5.68;;
13457;SDS011;6801;53.018;11.560;2023-09-18T02:31:38;7.47;;;5.87;;
13457;SDS011;6801;53.018;11.560;2023-09-18T02:34:05;6.93;;;5.70;;
13457;SDS011;6801;53.018;11.560;2023-09-18T02:36:32;7.22;;;5.30;;
13457;SDS011;6801;53.018;11.560;2023-09-18T02:38:59;7.97;;;5.85;;
13457;SDS011;6801;53.018;11.560;2023-09-18T02:41:27;7.20;;;5.45;;
13457;SDS011;6801;53.018;11.560;2023-09-18T02:43:54;7.75;;;5.30;;
13457;SDS011;6801;53.018;11.560;2023-09-18T02:46:21;6.82;;;5.93;;
13457;SDS011;6801;53.018;11.560;2023-09-18T02:48:50;8.18;;;5.63;;
13457;SDS011;6801;53.018;11.560;2023-09-18T02:51:17;7.60;;;5.47;;
13457;SDS011;6801;53.018;11.560;2023-09-18T02:53:44;7.20;;;6.00;;
13457;SDS011;6801;53.018;11.560;2023-09-18T02:56:12;9.48;;;5.72;;
13457;SDS011;6801;53.018;11.560;2023-09-18T02:58:39;13.48;;;5.10;;
13457;SDS011;6801;53.018;11.560;2023-09-18T03:01:07;6.75;;;4.90;;
13457;SDS011;6801;53.018;11.560;2023-09-18T03:03:34;7.10;;;5.45;;
13457;SDS011;6801;53.018;11.560;2023-09-18T03:06:02;6.57;;;5.15;;
13457;SDS011;6801;53.018;11.560;2023-09-18T03:08:30;9.07;;;5.87;;
13457;SDS011;6801;53.018;11.560;2023-09-18T03:10:58;7.65;;;6.00;;
13457;SDS011;6801;53.018;11.560;2023-09-18T03:13:26;7.05;;;5.90;;
13457;SDS011;6801;53.018;11.560;2023-09-18T03:15:54;7.43;;;5.53;;
13457;SDS011;6801;53.018;11.560;2023-09-18T03:18:22;8.10;;;5.13;;
13457;SDS011;6801;53.018;11.560;2023-09-18T03:20:49;7.28;;;5.28;;
13457;SDS011;6801;53.018;11.560;2023-09-18T03:23:17;7.28;;;5.40;;
13457;SDS011;6801;53.018;11.560;2023-09-18T03:25:44;6.88;;;5.70;;
13457;SDS011;6801;53.018;11.560;2023-09-18T03:28:11;6.63;;;5.40;;
13457;SDS011;6801;53.018;11.560;2023-09-18T03:30:38;10.07;;;6.03;;
13457;SDS011;6801;53.018;11.560;2023-09-18T03:33:05;6.65;;;5.20;;
13457;SDS011;6801;53.018;11.560;2023-09-18T03:35:32;7.80;;;5.70;;
13457;SDS011;6801;53.018;11.560;2023-09-18T03:38:13;8.77;;;5.88;;
13457;SDS011;6801;53.018;11.560;2023-09-18T03:40:42;6.95;;;5.65;;
13457;SDS011;6801;53.018;11.560;2023-09-18T03:43:10;6.57;;;5.20;;
13457;SDS011;6801;53.018;11.560;2023-09-18T03:45:38;6.82;;;5.60;;
13457;SDS011;6801;53.018;11.560;2023-09-18T03:48:07;8.27;;;5.93;;
13457;SDS011;6801;53.018;11.560;2023-09-18T03:50:34;8.73;;;5.68;;
13457;SDS011;6801;53.018;11.560;2023-09-18T03:53:01;9.48;;;5.95;;
13457;SDS011;6801;53.018;11.560;2023-09-18T03:55:28;7.03;;;5.65;;
13457;SDS011;6801;53.018;11.560;2023-09-18T03:57:56;7.60;;;5.75;;
13457;SDS011;6801;53.018;11.560;2023-09-18T04:00:23;6.80;;;5.03;;
13457;SDS011;6801;53.018;11.560;2023-09-18T04:02:51;7.10;;;5.38;;
13457;SDS011;6801;53.018;11.560;2023-09-18T04:05:18;7.07;;;5.25;;
13457;SDS011;6801;53.018;11.560;2023-09-18T04:07:45;8.95;;;5.28;;
13457;SDS011;6801;53.018;11.560;2023-09-18T04:10:12;7.55;;;5.72;;
13457;SDS011;6801;53.018;11.560;2023-09-18T04:12:44;8.10;;;5.68;;
13457;SDS011;6801;53.018;11.560;2023-09-18T04:15:14;6.70;;;5.18;;
13457;SDS011;6801;53.018;11.560;2023-09-18T04:17:42;6.70;;;5.35;;
13457;SDS011;6801;53.018;11.560;2023-09-18T04:20:10;7.85;;;5.57;;
13457;SDS011;6801;53.018;11.560;2023-09-18T04:22:42;6.28;;;5.10;;
13457;SDS011;6801;53.018;11.560;2023-09-18T04:25:14;7.45;;;5.80;;
13457;SDS011;6801;53.018;11.560;2023-09-18T04:27:42;7.40;;;4.80;;
13457;SDS011;6801;53.018;11.560;2023-09-18T04:30:09;10.52;;;5.55;;
13457;SDS011;6801;53.018;11.560;2023-09-18T04:32:38;7.28;;;4.90;;
13457;SDS011;6801;53.018;11.560;2023-09-18T04:35:06;5.93;;;5.10;;
13457;SDS011;6801;53.018;11.560;2023-09-18T04:37:35;8.23;;;5.28;;
13457;SDS011;6801;53.018;11.560;2023-09-18T04:40:04;6.82;;;5.40;;
13457;SDS011;6801;53.018;11.560;2023-09-18T04:42:35;9.95;;;5.95;;
13457;SDS011;6801;53.018;11.560;2023-09-18T04:45:03;7.03;;;5.28;;
13457;SDS011;6801;53.018;11.560;2023-09-18T04:47:31;8.65;;;5.10;;
13457;SDS011;6801;53.018;11.560;2023-09-18T04:50:00;7.28;;;5.00;;
13457;SDS011;6801;53.018;11.560;2023-09-18T04:52:31;8.80;;;5.90;;
13457;SDS011;6801;53.018;11.560;2023-09-18T04:54:58;8.18;;;5.70;;
13457;SDS011;6801;53.018;11.560;2023-09-18T04:57:25;9.52;;;5.93;;
13457;SDS011;6801;53.018;11.560;2023-09-18T04:59:52;7.55;;;5.93;;
13457;SDS011;6801;53.018;11.560;2023-09-18T05:02:19;7.75;;;5.30;;
13457;SDS011;6801;53.018;11.560;2023-09-18T05:04:46;6.95;;;5.18;;
13457;SDS011;6801;53.018;11.560;2023-09-18T05:07:14;6.75;;;5.25;;
13457;SDS011;6801;53.018;11.560;2023-09-18T05:09:41;8.55;;;5.55;;
13457;SDS011;6801;53.018;11.560;2023-09-18T05:12:08;9.45;;;6.03;;
13457;SDS011;6801;53.018;11.560;2023-09-18T05:14:39;5.97;;;4.97;;
13457;SDS011;6801;53.018;11.560;2023-09-18T05:17:06;9.52;;;5.53;;
13457;SDS011;6801;53.018;11.560;2023-09-18T05:19:36;9.07;;;5.18;;
13457;SDS011;6801;53.018;11.560;2023-09-18T05:22:04;7.35;;;5.10;;
13457;SDS011;6801;53.018;11.560;2023-09-18T05:24:32;10.48;;;5.10;;
13457;SDS011;6801;53.018;11.560;2023-09-18T05:27:00;8.13;;;4.75;;
13457;SDS011;6801;53.018;11.560;2023-09-18T05:29:28;42.10;;;7.68;;
13457;SDS011;6801;53.018;11.560;2023-09-18T05:31:55;7.55;;;5.72;;
13457;SDS011;6801;53.018;11.560;2023-09-18T05:34:22;6.18;;;5.30;;
13457;SDS011;6801;53.018;11.560;2023-09-18T05:36:49;5.97;;;5.18;;
13457;SDS011;6801;53.018;11.560;2023-09-18T05:39:16;7.40;;;5.32;;
13457;SDS011;6801;53.018;11.560;2023-09-18T05:41:44;7.50;;;5.43;;
13457;SDS011;6801;53.018;11.560;2023-09-18T05:44:11;7.68;;;5.72;;
13457;SDS011;6801;53.018;11.560;2023-09-18T05:46:39;8.38;;;5.78;;
13457;SDS011;6801;53.018;11.560;2023-09-18T05:49:06;6.47;;;5.30;;
13457;SDS011;6801;53.018;11.560;2023-09-18T05:51:33;7.13;;;5.65;;
13457;SDS011;6801;53.018;11.560;2023-09-18T05:54:00;9.63;;;5.93;;
13457;SDS011;6801;53.018;11.560;2023-09-18T05:56:27;7.25;;;5.85;;
13457;SDS011;6801;53.018;11.560;2023-09-18T05:58:55;7.57;;;5.40;;
13457;SDS011;6801;53.018;11.560;2023-09-18T06:01:22;6.95;;;5.53;;
13457;SDS011;6801;53.018;11.560;2023-09-18T06:03:50;8.80;;;5.40;;
13457;SDS011;6801;53.018;11.560;2023-09-18T06:06:17;7.13;;;5.18;;
13457;SDS011;6801;53.018;11.560;2023-09-18T06:08:44;5.40;;;4.53;;
13457;SDS011;6801;53.018;11.560;2023-09-18T06:11:11;6.63;;;4.90;;
13457;SDS011;6801;53.018;11.560;2023-09-18T06:13:38;6.55;;;4.60;;
13457;SDS011;6801;53.018;11.560;2023-09-18T06:16:06;7.10;;;5.43;;
13457;SDS011;6801;53.018;11.560;2023-09-18T06:18:33;6.38;;;4.80;;
13457;SDS011;6801;53.018;11.560;2023-09-18T06:21:03;7.67;;;5.63;;
13457;SDS011;6801;53.018;11.560;2023-09-18T06:23:30;6.90;;;5.03;;
13457;SDS011;6801;53.018;11.560;2023-09-18T06:25:57;6.72;;;4.70;;
13457;SDS011;6801;53.018;11.560;2023-09-18T06:28:24;6.25;;;5.20;;
13457;SDS011;6801;53.018;11.560;2023-09-18T06:30:51;8.27;;;4.90;;
13457;SDS011;6801;53.018;11.560;2023-09-18T06:33:20;6.50;;;4.90;;
13457;SDS011;6801;53.018;11.560;2023-09-18T06:35:47;9.98;;;5.43;;
13457;SDS011;6801;53.018;11.560;2023-09-18T06:38:16;10.98;;;4.63;;
13457;SDS011;6801;53.018;11.560;2023-09-18T06:40:43;7.10;;;4.63;;
13457;SDS011;6801;53.018;11.560;2023-09-18T06:43:10;7.05;;;4.93;;
13457;SDS011;6801;53.018;11.560;2023-09-18T06:45:37;6.43;;;4.80;;
13457;SDS011;6801;53.018;11.560;2023-09-18T06:48:05;8.25;;;5.30;;
13457;SDS011;6801;53.018;11.560;2023-09-18T06:50:33;5.82;;;4.65;;
13457;SDS011;6801;53.018;11.560;2023-09-18T06:53:01;8.40;;;5.10;;
13457;SDS011;6801;53.018;11.560;2023-09-18T06:55:29;5.20;;;4.53;;
13457;SDS011;6801;53.018;11.560;2023-09-18T06:57:56;7.65;;;5.38;;
13457;SDS011;6801;53.018;11.560;2023-09-18T07:00:23;6.82;;;4.78;;
13457;SDS011;6801;53.018;11.560;2023-09-18T07:02:50;11.02;;;4.75;;
13457;SDS011;6801;53.018;11.560;2023-09-18T07:05:17;6.65;;;4.70;;
13457;SDS011;6801;53.018;11.560;2023-09-18T07:07:46;8.32;;;4.70;;
13457;SDS011;6801;53.018;11.560;2023-09-18T07:10:13;9.30;;;4.63;;
13457;SDS011;6801;53.018;11.560;2023-09-18T07:12:40;4.90;;;3.83;;
13457;SDS011;6801;53.018;11.560;2023-09-18T07:15:07;5.95;;;4.63;;
13457;SDS011;6801;53.018;11.560;2023-09-18T07:17:34;6.03;;;4.57;;
13457;SDS011;6801;53.018;11.560;2023-09-18T07:20:01;9.65;;;4.35;;
13457;SDS011;6801;53.018;11.560;2023-09-18T07:22:35;6.95;;;4.40;;
13457;SDS011;6801;53.018;11.560;2023-09-18T07:25:05;8.55;;;4.72;;
13457;SDS011;6801;53.018;11.560;2023-09-18T07:27:33;6.47;;;4.20;;
13457;SDS011;6801;53.018;11.560;2023-09-18T07:30:01;5.43;;;4.85;;
13457;SDS011;6801;53.018;11.560;2023-09-18T07:32:29;6.00;;;4.45;;
13457;SDS011;6801;53.018;11.560;2023-09-18T07:34:57;8.18;;;4.20;;
13457;SDS011;6801;53.018;11.560;2023-09-18T07:37:25;9.13;;;4.53;;
13457;SDS011;6801;53.018;11.560;2023-09-18T07:39:53;11.07;;;5.00;;
13457;SDS011;6801;53.018;11.560;2023-09-18T07:42:21;7.15;;;4.60;;
13457;SDS011;6801;53.018;11.560;2023-09-18T07:44:50;4.82;;;4.03;;
13457;SDS011;6801;53.018;11.560;2023-09-18T07:47:17;7.38;;;4.25;;
13457;SDS011;6801;53.018;11.560;2023-09-18T07:49:45;8.05;;;3.97;;
13457;SDS011;6801;53.018;11.560;2023-09-18T07:52:12;5.50;;;4.25;;
13457;SDS011;6801;53.018;11.560;2023-09-18T07:54:39;7.03;;;4.43;;
13457;SDS011;6801;53.018;11.560;2023-09-18T07:57:06;5.22;;;4.32;;
13457;SDS011;6801;53.018;11.560;2023-09-18T07:59:35;6.90;;;3.88;;
13457;SDS011;6801;53.018;11.560;2023-09-18T08:02:04;8.30;;;3.80;;
13457;SDS011;6801;53.018;11.560;2023-09-18T08:04:31;6.72;;;3.55;;
13457;SDS011;6801;53.018;11.560;2023-09-18T08:06:58;5.30;;;3.90;;
13457;SDS011;6801;53.018;11.560;2023-09-18T08:09:26;5.82;;;3.92;;
13457;SDS011;6801;53.018;11.560;2023-09-18T08:11:54;5.97;;;3.55;;
13457;SDS011;6801;53.018;11.560;2023-09-18T08:14:22;7.65;;;4.38;;
13457;SDS011;6801;53.018;11.560;2023-09-18T08:16:55;5.80;;;4.05;;
13457;SDS011;6801;53.018;11.560;2023-09-18T08:19:23;10.48;;;4.75;;
13457;SDS011;6801;53.018;11.560;2023-09-18T08:21:52;4.68;;;3.83;;
13457;SDS011;6801;53.018;11.560;2023-09-18T08:24:19;6.97;;;3.97;;
13457;SDS011;6801;53.018;11.560;2023-09-18T08:26:47;5.07;;;3.72;;
13457;SDS011;6801;53.018;11.560;2023-09-18T08:29:14;5.32;;;3.67;;
13457;SDS011;6801;53.018;11.560;2023-09-18T08:31:41;5.15;;;4.07;;
13457;SDS011;6801;53.018;11.560;2023-09-18T08:34:09;4.97;;;3.75;;
13457;SDS011;6801;53.018;11.560;2023-09-18T08:36:37;6.53;;;4.32;;
13457;SDS011;6801;53.018;11.560;2023-09-18T08:39:04;7.07;;;4.20;;
13457;SDS011;6801;53.018;11.560;2023-09-18T08:41:32;6.78;;;3.97;;
13457;SDS011;6801;53.018;11.560;2023-09-18T08:44:02;5.32;;;3.80;;
13457;SDS011;6801;53.018;11.560;2023-09-18T08:46:30;6.78;;;3.83;;
13457;SDS011;6801;53.018;11.560;2023-09-18T08:48:59;8.88;;;3.90;;
13457;SDS011;6801;53.018;11.560;2023-09-18T08:51:29;5.38;;;3.42;;
13457;SDS011;6801;53.018;11.560;2023-09-18T08:53:57;7.93;;;3.60;;
13457;SDS011;6801;53.018;11.560;2023-09-18T08:56:24;5.43;;;3.67;;
13457;SDS011;6801;53.018;11.560;2023-09-18T08:58:52;4.22;;;3.42;;
13457;SDS011;6801;53.018;11.560;2023-09-18T09:01:22;11.73;;;4.40;;
13457;SDS011;6801;53.018;11.560;2023-09-18T09:03:49;5.18;;;3.70;;
13457;SDS011;6801;53.018;11.560;2023-09-18T09:06:16;17.33;;;4.25;;
13457;SDS011;6801;53.018;11.560;2023-09-18T09:08:45;6.05;;;3.63;;
13457;SDS011;6801;53.018;11.560;2023-09-18T09:11:13;8.88;;;3.50;;
13457;SDS011;6801;53.018;11.560;2023-09-18T09:13:40;6.28;;;3.55;;
13457;SDS011;6801;53.018;11.560;2023-09-18T09:16:07;5.60;;;3.55;;
13457;SDS011;6801;53.018;11.560;2023-09-18T09:18:46;8.88;;;3.42;;
13457;SDS011;6801;53.018;11.560;2023-09-18T09:21:14;7.15;;;3.38;;
13457;SDS011;6801;53.018;11.560;2023-09-18T09:23:46;5.50;;;3.10;;
13457;SDS011;6801;53.018;11.560;2023-09-18T09:26:17;19.50;;;4.72;;
13457;SDS011;6801;53.018;11.560;2023-09-18T09:28:45;4.40;;;2.78;;
13457;SDS011;6801;53.018;11.560;2023-09-18T09:31:22;25.80;;;4.82;;
13457;SDS011;6801;53.018;11.560;2023-09-18T09:33:53;6.63;;;3.22;;
13457;SDS011;6801;53.018;11.560;2023-09-18T09:36:21;3.55;;;2.90;;
13457;SDS011;6801;53.018;11.560;2023-09-18T09:38:52;8.68;;;3.60;;
13457;SDS011;6801;53.018;11.560;2023-09-18T09:41:22;8.40;;;3.42;;
13457;SDS011;6801;53.018;11.560;2023-09-18T09:43:49;4.78;;;2.97;;
13457;SDS011;6801;53.018;11.560;2023-09-18T09:46:17;3.80;;;2.90;;
13457;SDS011;6801;53.018;11.560;2023-09-18T09:49:02;4.68;;;3.15;;
13457;SDS011;6801;53.018;11.560;2023-09-18T09:51:30;6.25;;;3.40;;
13457;SDS011;6801;53.018;11.560;2023-09-18T09:54:00;4.32;;;3.08;;
13457;SDS011;6801;53.018;11.560;2023-09-18T09:56:40;5.03;;;3.10;;
13457;SDS011;6801;53.018;11.560;2023-09-18T09:59:08;3.88;;;2.75;;
13457;SDS011;6801;53.018;11.560;2023-09-18T10:01:37;3.28;;;2.47;;
13457;SDS011;6801;53.018;11.560;2023-09-18T10:04:07;13.23;;;3.35;;
13457;SDS011;6801;53.018;11.560;2023-09-18T10:06:36;4.45;;;3.20;;
13457;SDS011;6801;53.018;11.560;2023-09-18T10:09:05;3.22;;;2.58;;
13457;SDS011;6801;53.018;11.560;2023-09-18T10:11:37;5.72;;;2.90;;
13457;SDS011;6801;53.018;11.560;2023-09-18T10:14:09;8.48;;;3.13;;
13457;SDS011;6801;53.018;11.560;2023-09-18T10:16:39;4.65;;;2.80;;
13457;SDS011;6801;53.018;11.560;2023-09-18T10:19:12;17.45;;;3.72;;
13457;SDS011;6801;53.018;11.560;2023-09-18T10:21:48;6.85;;;3.38;;
13457;SDS011;6801;53.018;11.560;2023-09-18T10:24:27;3.38;;;2.53;;
13457;SDS011;6801;53.018;11.560;2023-09-18T10:26:58;3.40;;;2.90;;
13457;SDS011;6801;53.018;11.560;2023-09-18T10:29:26;4.38;;;3.38;;
13457;SDS011;6801;53.018;11.560;2023-09-18T10:31:55;118.55;;;10.35;;
13457;SDS011;6801;53.018;11.560;2023-09-18T10:34:23;6.57;;;3.28;;
13457;SDS011;6801;53.018;11.560;2023-09-18T10:36:51;5.45;;;3.00;;
13457;SDS011;6801;53.018;11.560;2023-09-18T10:39:19;3.28;;;2.58;;
13457;SDS011;6801;53.018;11.560;2023-09-18T10:44:18;5.68;;;2.78;;
13457;SDS011;6801;53.018;11.560;2023-09-18T10:46:46;5.78;;;2.80;;
13457;SDS011;6801;53.018;11.560;2023-09-18T10:49:13;4.40;;;3.28;;
13457;SDS011;6801;53.018;11.560;2023-09-18T10:51:41;3.88;;;3.13;;
13457;SDS011;6801;53.018;11.560;2023-09-18T10:54:09;5.38;;;2.70;;
13457;SDS011;6801;53.018;11.560;2023-09-18T10:56:36;4.63;;;3.05;;
13457;SDS011;6801;53.018;11.560;2023-09-18T10:59:06;8.00;;;2.92;;
13457;SDS011;6801;53.018;11.560;2023-09-18T11:01:34;5.27;;;2.77;;
13457;SDS011;6801;53.018;11.560;2023-09-18T11:04:03;3.17;;;2.58;;
13457;SDS011;6801;53.018;11.560;2023-09-18T11:09:29;4.15;;;2.75;;
13457;SDS011;6801;53.018;11.560;2023-09-18T11:12:02;8.20;;;2.55;;
13457;SDS011;6801;53.018;11.560;2023-09-18T11:14:45;6.60;;;3.15;;
13457;SDS011;6801;53.018;11.560;2023-09-18T11:17:30;4.50;;;2.95;;
13457;SDS011;6801;53.018;11.560;2023-09-18T11:20:06;3.80;;;2.40;;
13457;SDS011;6801;53.018;11.560;2023-09-18T11:22:37;4.47;;;2.55;;
13457;SDS011;6801;53.018;11.560;2023-09-18T11:28:04;4.55;;;2.50;;
13457;SDS011;6801;53.018;11.560;2023-09-18T11:30:35;4.97;;;2.35;;
13457;SDS011;6801;53.018;11.560;2023-09-18T11:33:04;6.68;;;2.95;;
13457;SDS011;6801;53.018;11.560;2023-09-18T11:35:31;12.30;;;3.53;;
13457;SDS011;6801;53.018;11.560;2023-09-18T11:38:03;7.47;;;2.70;;
13457;SDS011;6801;53.018;11.560;2023-09-18T11:40:32;3.78;;;2.40;;
13457;SDS011;6801;53.018;11.560;2023-09-18T11:43:22;3.70;;;2.30;;
13457;SDS011;6801;53.018;11.560;2023-09-18T11:45:53;3.72;;;2.63;;
13457;SDS011;6801;53.018;11.560;2023-09-18T11:48:22;5.28;;;2.90;;
13457;SDS011;6801;53.018;11.560;2023-09-18T11:50:53;26.05;;;4.18;;
13457;SDS011;6801;53.018;11.560;2023-09-18T11:53:20;7.45;;;2.40;;
13457;SDS011;6801;53.018;11.560;2023-09-18T11:55:49;3.40;;;2.30;;
13457;SDS011;6801;53.018;11.560;2023-09-18T11:58:16;5.18;;;2.50;;
13457;SDS011;6801;53.018;11.560;2023-09-18T12:00:48;4.30;;;2.28;;
13457;SDS011;6801;53.018;11.560;2023-09-18T12:03:18;5.95;;;2.63;;
13457;SDS011;6801;53.018;11.560;2023-09-18T12:05:51;7.30;;;2.58;;
13457;SDS011;6801;53.018;11.560;2023-09-18T12:08:20;5.47;;;2.70;;
13457;SDS011;6801;53.018;11.560;2023-09-18T12:10:48;4.10;;;2.28;;
13457;SDS011;6801;53.018;11.560;2023-09-18T12:13:16;5.20;;;2.13;;
13457;SDS011;6801;53.018;11.560;2023-09-18T12:15:43;4.13;;;1.90;;
13457;SDS011;6801;53.018;11.560;2023-09-18T12:18:11;10.52;;;2.53;;
13457;SDS011;6801;53.018;11.560;2023-09-18T12:20:45;10.57;;;2.38;;
13457;SDS011;6801;53.018;11.560;2023-09-18T12:23:13;5.72;;;2.30;;
13457;SDS011;6801;53.018;11.560;2023-09-18T12:25:41;5.18;;;2.22;;
13457;SDS011;6801;53.018;11.560;2023-09-18T12:28:10;5.05;;;2.28;;
13457;SDS011;6801;53.018;11.560;2023-09-18T12:30:39;7.85;;;2.17;;
13457;SDS011;6801;53.018;11.560;2023-09-18T12:33:07;5.78;;;2.40;;
13457;SDS011;6801;53.018;11.560;2023-09-18T12:35:34;7.88;;;2.65;;
13457;SDS011;6801;53.018;11.560;2023-09-18T12:38:12;5.78;;;2.47;;
13457;SDS011;6801;53.018;11.560;2023-09-18T12:40:40;6.88;;;2.55;;
13457;SDS011;6801;53.018;11.560;2023-09-18T12:43:09;3.93;;;1.97;;
13457;SDS011;6801;53.018;11.560;2023-09-18T12:45:36;10.30;;;2.30;;
13457;SDS011;6801;53.018;11.560;2023-09-18T12:48:05;6.07;;;2.17;;
13457;SDS011;6801;53.018;11.560;2023-09-18T12:50:33;7.75;;;2.65;;
13457;SDS011;6801;53.018;11.560;2023-09-18T12:53:12;6.55;;;2.10;;
13457;SDS011;6801;53.018;11.560;2023-09-18T12:55:42;7.32;;;2.28;;
13457;SDS011;6801;53.018;11.560;2023-09-18T12:58:12;6.80;;;2.33;;
13457;SDS011;6801;53.018;11.560;2023-09-18T13:00:44;8.45;;;2.55;;
13457;SDS011;6801;53.018;11.560;2023-09-18T13:03:12;8.25;;;2.42;;
13457;SDS011;6801;53.018;11.560;2023-09-18T13:05:40;7.25;;;2.03;;
13457;SDS011;6801;53.018;11.560;2023-09-18T13:08:07;9.05;;;2.05;;
13457;SDS011;6801;53.018;11.560;2023-09-18T13:10:44;4.90;;;1.65;;
13457;SDS011;6801;53.018;11.560;2023-09-18T13:13:16;6.38;;;2.05;;
13457;SDS011;6801;53.018;11.560;2023-09-18T13:15:44;7.68;;;1.95;;
13457;SDS011;6801;53.018;11.560;2023-09-18T13:18:13;6.13;;;1.90;;
13457;SDS011;6801;53.018;11.560;2023-09-18T13:20:41;15.77;;;2.90;;
13457;SDS011;6801;53.018;11.560;2023-09-18T13:23:08;9.77;;;2.22;;
13457;SDS011;6801;53.018;11.560;2023-09-18T13:25:36;6.85;;;1.70;;
13457;SDS011;6801;53.018;11.560;2023-09-18T13:28:07;10.68;;;2.25;;
13457;SDS011;6801;53.018;11.560;2023-09-18T13:33:04;10.45;;;2.40;;
13457;SDS011;6801;53.018;11.560;2023-09-18T13:35:33;8.90;;;1.73;;
13457;SDS011;6801;53.018;11.560;2023-09-18T13:38:01;10.40;;;1.83;;
13457;SDS011;6801;53.018;11.560;2023-09-18T13:40:29;7.70;;;1.75;;
13457;SDS011;6801;53.018;11.560;2023-09-18T13:42:58;6.85;;;1.88;;
13457;SDS011;6801;53.018;11.560;2023-09-18T13:45:26;6.38;;;1.92;;
13457;SDS011;6801;53.018;11.560;2023-09-18T13:47:53;5.45;;;1.77;;
13457;SDS011;6801;53.018;11.560;2023-09-18T13:50:21;6.68;;;1.75;;
13457;SDS011;6801;53.018;11.560;2023-09-18T13:52:48;11.45;;;1.98;;
13457;SDS011;6801;53.018;11.560;2023-09-18T13:55:15;6.35;;;2.17;;
13457;SDS011;6801;53.018;11.560;2023-09-18T13:57:42;4.88;;;1.70;;
13457;SDS011;6801;53.018;11.560;2023-09-18T14:00:10;6.50;;;1.90;;
13457;SDS011;6801;53.018;11.560;2023-09-18T14:02:40;8.60;;;2.05;;
13457;SDS011;6801;53.018;11.560;2023-09-18T14:05:09;7.63;;;1.80;;
13457;SDS011;6801;53.018;11.560;2023-09-18T14:07:37;6.88;;;1.50;;
13457;SDS011;6801;53.018;11.560;2023-09-18T14:10:05;9.77;;;1.80;;
13457;SDS011;6801;53.018;11.560;2023-09-18T14:12:33;10.35;;;1.80;;
13457;SDS011;6801;53.018;11.560;2023-09-18T14:15:00;5.68;;;2.17;;
13457;SDS011;6801;53.018;11.560;2023-09-18T14:17:28;7.38;;;1.77;;
13457;SDS011;6801;53.018;11.560;2023-09-18T14:19:56;5.40;;;1.60;;
13457;SDS011;6801;53.018;11.560;2023-09-18T14:22:24;7.30;;;1.58;;
13457;SDS011;6801;53.018;11.560;2023-09-18T14:24:51;16.27;;;2.20;;
13457;SDS011;6801;53.018;11.560;2023-09-18T14:27:18;11.85;;;1.90;;
13457;SDS011;6801;53.018;11.560;2023-09-18T14:29:45;6.00;;;1.90;;
13457;SDS011;6801;53.018;11.560;2023-09-18T14:32:12;6.30;;;1.88;;
13457;SDS011;6801;53.018;11.560;2023-09-18T14:34:40;6.65;;;1.63;;
13457;SDS011;6801;53.018;11.560;2023-09-18T14:37:09;8.77;;;1.40;;
13457;SDS011;6801;53.018;11.560;2023-09-18T14:39:36;11.05;;;1.92;;
13457;SDS011;6801;53.018;11.560;2023-09-18T14:42:03;5.47;;;1.52;;
13457;SDS011;6801;53.018;11.560;2023-09-18T14:44:30;5.95;;;1.58;;
13457;SDS011;6801;53.018;11.560;2023-09-18T14:46:58;5.63;;;1.58;;
13457;SDS011;6801;53.018;11.560;2023-09-18T14:49:25;10.98;;;1.48;;
13457;SDS011;6801;53.018;11.560;2023-09-18T14:51:52;7.72;;;1.90;;
13457;SDS011;6801;53.018;11.560;2023-09-18T14:54:21;5.18;;;1.40;;
13457;SDS011;6801;53.018;11.560;2023-09-18T14:56:48;5.30;;;1.33;;
13457;SDS011;6801;53.018;11.560;2023-09-18T14:59:15;4.97;;;1.70;;
13457;SDS011;6801;53.018;11.560;2023-09-18T15:01:42;7.47;;;1.63;;
13457;SDS011;6801;53.018;11.560;2023-09-18T15:04:09;5.95;;;1.50;;
13457;SDS011;6801;53.018;11.560;2023-09-18T15:06:36;7.00;;;1.50;;